Time;durP1;ratioP1;P1;durP2;ratioP2;P2;SDS_P1;SDS_P2;PMS_P1;PMS_P2;Temp;Humidity;BMP_temperature;BMP_pressure;BME280_temperature;BME280_humidity;BME280_pressure;Samples;Min_cycle;Max_cycle;Signal;HPM_P1;HPM_P2
2023/03/19 00:01:26;;;;;;;4.95;2.70;;;;;;;-143.48;89.86;118439.88;5119724;28;20055;-69
2023/03/19 00:03:52;;;;;;;6.28;2.83;;;;;;;-143.48;89.25;118439.88;5119815;28;20060;-68
2023/03/19 00:06:17;;;;;;;4.47;2.50;;;;;;;-143.48;89.35;118439.88;5117333;28;20076;-68
2023/03/19 00:08:42;;;;;;;6.40;2.85;;;;;;;-143.48;90.17;118439.88;5114081;28;20034;-69
2023/03/19 00:11:09;;;;;;;4.07;2.45;;;;;;;-143.48;90.53;118439.88;5113221;28;20110;-68
2023/03/19 00:13:35;;;;;;;4.70;2.65;;;;;;;-143.48;90.88;118439.88;5113284;28;20058;-69
2023/03/19 00:16:00;;;;;;;5.15;2.65;;;;;;;-143.48;91.05;118439.88;5095444;28;20047;-69
2023/03/19 00:18:26;;;;;;;4.85;2.83;;;;;;;-143.48;90.71;118439.88;5114405;28;20027;-68
2023/03/19 00:20:51;;;;;;;6.10;3.08;;;;;;;-143.48;91.10;118439.88;5114794;28;20042;-68
2023/03/19 00:23:16;;;;;;;4.90;2.63;;;;;;;-143.48;90.57;118439.88;5114583;28;20024;-68
2023/03/19 00:25:42;;;;;;;6.93;2.85;;;;;;;-143.48;90.23;118439.88;5114465;28;20107;-68
2023/03/19 00:28:08;;;;;;;5.55;2.90;;;;;;;-143.48;90.50;118439.88;5114387;28;20027;-68
2023/03/19 00:30:33;;;;;;;4.25;2.78;;;;;;;-143.48;90.57;118439.88;5114409;28;20030;-68
2023/03/19 00:32:58;;;;;;;4.68;2.95;;;;;;;-143.48;90.80;118439.88;5096271;28;20114;-68
2023/03/19 00:35:24;;;;;;;5.70;3.20;;;;;;;-143.48;90.66;118439.88;5114632;28;20027;-69
2023/03/19 00:37:49;;;;;;;7.00;3.40;;;;;;;-143.48;90.84;118439.88;5114215;28;20108;-68
2023/03/19 00:40:15;;;;;;;4.50;3.08;;;;;;;-143.48;90.53;118439.88;5114294;28;20661;-69
2023/03/19 00:42:40;;;;;;;5.20;3.00;;;;;;;-143.48;90.53;118439.88;5096013;28;20027;-68
2023/03/19 00:45:06;;;;;;;6.70;3.30;;;;;;;-143.48;90.44;118439.88;5114126;28;20027;-68
2023/03/19 00:47:32;;;;;;;6.75;3.45;;;;;;;-143.48;91.00;118439.88;5113821;28;20052;-69
2023/03/19 00:49:57;;;;;;;6.75;3.50;;;;;;;-143.48;90.84;118439.88;5114060;28;20035;-68
2023/03/19 00:52:23;;;;;;;6.80;3.70;;;;;;;-143.48;91.42;118439.88;5114260;28;20016;-69
2023/03/19 00:54:48;;;;;;;9.02;4.53;;;;;;;-143.48;91.38;118439.88;5114384;28;20393;-69
2023/03/19 00:57:13;;;;;;;6.53;3.95;;;;;;;-143.48;91.26;118439.88;5113944;28;20425;-69
2023/03/19 00:59:39;;;;;;;6.90;4.20;;;;;;;-143.48;91.51;118439.88;5114172;28;20090;-69
2023/03/19 01:02:04;;;;;;;6.22;3.97;;;;;;;-143.48;91.26;118439.88;5095801;28;20475;-68
2023/03/19 01:04:30;;;;;;;6.30;4.10;;;;;;;-143.48;91.13;118439.88;5114067;28;20445;-68
2023/03/19 01:06:57;;;;;;;9.35;4.53;;;;;;;-143.48;91.72;118439.88;5095655;28;20413;-69
2023/03/19 01:09:22;;;;;;;6.80;4.50;;;;;;;-143.48;91.57;118439.88;5114210;28;20107;-68
2023/03/19 01:11:47;;;;;;;7.60;4.43;;;;;;;-143.48;91.75;118439.88;5098743;28;20426;-68
2023/03/19 01:14:15;;;;;;;6.20;4.05;;;;;;;-143.48;91.91;118439.88;5118046;28;20102;-68
2023/03/19 01:16:40;;;;;;;7.05;4.35;;;;;;;-143.48;91.74;118439.88;5117729;28;20111;-68
2023/03/19 01:19:05;;;;;;;10.25;4.72;;;;;;;-143.48;92.43;118439.88;5099415;28;20051;-69
2023/03/19 01:21:31;;;;;;;7.72;4.70;;;;;;;-143.48;92.58;118439.88;5118161;28;20106;-69
2023/03/19 01:23:57;;;;;;;8.27;4.43;;;;;;;-143.48;92.45;118439.88;5117696;28;20024;-68
2023/03/19 01:26:22;;;;;;;7.32;4.30;;;;;;;-143.48;92.55;118439.88;5099401;28;20020;-70
2023/03/19 01:28:48;;;;;;;8.65;5.07;;;;;;;-143.48;92.68;118439.88;5117853;28;20030;-69
2023/03/19 01:31:13;;;;;;;10.15;4.82;;;;;;;-143.48;92.88;118439.88;5099229;28;20375;-70
2023/03/19 01:33:39;;;;;;;6.05;4.57;;;;;;;-143.48;92.91;118439.88;5117794;28;20028;-69
2023/03/19 01:36:05;;;;;;;6.68;4.78;;;;;;;-143.48;93.01;118439.88;5099108;28;20035;-68
2023/03/19 01:38:30;;;;;;;8.20;4.70;;;;;;;-143.48;93.38;118439.88;5117711;28;20036;-68
2023/03/19 01:40:56;;;;;;;7.75;4.75;;;;;;;-143.48;93.69;118439.88;5117429;28;20145;-69
2023/03/19 01:43:24;;;;;;;8.68;4.78;;;;;;;-143.48;94.00;118439.88;5117867;28;20352;-69
2023/03/19 01:45:54;;;;;;;6.47;5.07;;;;;;;-143.48;94.00;118439.88;5117781;28;20022;-69
2023/03/19 01:48:27;;;;;;;7.50;4.60;;;;;;;-143.48;94.49;118439.88;5117074;28;20134;-69
2023/03/19 01:50:54;;;;;;;9.55;5.25;;;;;;;-143.48;94.67;118439.88;5117222;28;20028;-69
2023/03/19 01:53:23;;;;;;;9.32;5.40;;;;;;;-143.48;94.54;118439.88;5098872;28;20027;-68
2023/03/19 01:55:49;;;;;;;8.77;5.50;;;;;;;-143.48;94.51;118439.88;5117257;28;20026;-69
2023/03/19 01:58:15;;;;;;;7.43;5.15;;;;;;;-143.48;94.54;118439.88;5116988;28;20066;-68
2023/03/19 02:00:41;;;;;;;8.13;5.50;;;;;;;-143.48;94.94;118439.88;5117150;28;20090;-68
2023/03/19 02:03:06;;;;;;;8.57;5.22;;;;;;;-143.48;95.46;118439.88;5098695;28;20034;-68
2023/03/19 02:05:33;;;;;;;10.38;6.00;;;;;;;-143.48;95.52;118439.88;5117130;28;20106;-69
2023/03/19 02:08:02;;;;;;;9.80;5.60;;;;;;;-143.48;95.80;118439.88;5116919;28;20030;-69
2023/03/19 02:10:29;;;;;;;10.40;5.72;;;;;;;-143.48;95.81;118439.88;5116728;28;20475;-69
2023/03/19 02:12:55;;;;;;;8.77;5.75;;;;;;;-143.48;96.11;118439.88;5116868;28;20057;-69
2023/03/19 02:15:21;;;;;;;9.20;6.43;;;;;;;-143.48;96.92;118439.88;5117204;28;20059;-69
2023/03/19 02:17:46;;;;;;;9.32;6.43;;;;;;;-143.48;96.93;118439.88;5098238;28;20023;-69
2023/03/19 02:20:18;;;;;;;13.10;6.68;;;;;;;-143.48;97.17;118439.88;5098069;28;20088;-69
2023/03/19 02:23:19;;;;;;;11.75;6.70;;;;;;;-143.48;97.27;118439.88;5116576;28;20035;-70
2023/03/19 02:25:45;;;;;;;16.80;6.35;;;;;;;-143.48;97.19;118439.88;5073375;28;20129;-68
2023/03/19 02:28:13;;;;;;;10.23;7.10;;;;;;;-143.48;97.37;118439.88;5098458;28;20055;-68
2023/03/19 02:30:39;;;;;;;10.50;7.55;;;;;;;-143.48;97.55;118439.88;5116527;28;20066;-68
2023/03/19 02:33:04;;;;;;;13.18;8.00;;;;;;;-143.48;97.55;118439.88;5098122;28;20059;-69
2023/03/19 02:35:33;;;;;;;11.93;8.05;;;;;;;-143.48;97.48;118439.88;5098241;28;20128;-68
2023/03/19 02:38:02;;;;;;;16.30;9.02;;;;;;;-143.48;97.71;118439.88;5116512;28;20382;-68
2023/03/19 02:40:36;;;;;;;13.05;8.70;;;;;;;-143.48;97.91;118439.88;5116194;28;20049;-68
2023/03/19 02:43:01;;;;;;;13.00;8.93;;;;;;;-143.48;97.77;118439.88;5097859;28;20115;-68
2023/03/19 02:45:28;;;;;;;16.33;9.30;;;;;;;-143.48;97.73;118439.88;5116268;28;20051;-68
2023/03/19 02:47:54;;;;;;;15.32;9.50;;;;;;;-143.48;98.09;118439.88;5098045;28;20108;-69
2023/03/19 02:50:20;;;;;;;14.27;9.38;;;;;;;-143.48;97.71;118439.88;5116070;28;20102;-68
2023/03/19 02:52:45;;;;;;;16.40;9.45;;;;;;;-143.48;98.11;118439.88;5115912;28;20031;-69
2023/03/19 02:55:11;;;;;;;13.82;9.00;;;;;;;-143.48;98.42;118439.88;5115995;28;20102;-69
2023/03/19 02:57:36;;;;;;;14.38;8.95;;;;;;;-143.48;98.22;118439.88;5116147;28;20348;-69
2023/03/19 03:00:03;;;;;;;15.40;9.10;;;;;;;-143.48;98.42;118439.88;5115917;28;20494;-68
2023/03/19 03:02:29;;;;;;;14.07;8.73;;;;;;;-143.48;98.69;118439.88;5097175;28;20033;-69
2023/03/19 03:04:55;;;;;;;14.63;9.45;;;;;;;-143.48;98.69;118439.88;5114359;28;20023;-69
2023/03/19 03:07:21;;;;;;;14.80;9.30;;;;;;;-143.48;98.27;118439.88;5114375;28;20081;-68
2023/03/19 03:09:46;;;;;;;18.33;9.65;;;;;;;-143.48;98.06;118439.88;5114273;28;20725;-68
2023/03/19 03:12:11;;;;;;;16.83;9.27;;;;;;;-143.48;98.14;118439.88;5095837;28;20019;-69
2023/03/19 03:14:37;;;;;;;15.75;9.18;;;;;;;-143.48;97.86;118439.88;5114093;28;20024;-69
2023/03/19 03:17:02;;;;;;;17.73;9.75;;;;;;;-143.48;98.17;118439.88;5114231;28;20027;-69
2023/03/19 03:19:28;;;;;;;14.85;9.43;;;;;;;-143.48;98.36;118439.88;5115348;28;20491;-69
2023/03/19 03:21:54;;;;;;;14.25;9.20;;;;;;;-143.48;98.35;118439.88;5117039;28;20023;-68
2023/03/19 03:24:19;;;;;;;15.05;9.23;;;;;;;-143.48;98.73;118439.88;5115421;28;20023;-68
2023/03/19 03:26:45;;;;;;;15.38;9.25;;;;;;;-143.48;98.62;118439.88;5097090;28;20020;-69
2023/03/19 03:29:10;;;;;;;14.43;9.30;;;;;;;-143.48;98.83;118439.88;5115548;28;20023;-69
2023/03/19 03:31:36;;;;;;;15.80;9.63;;;;;;;-143.48;98.96;118439.88;5115699;28;20019;-67
2023/03/19 03:34:02;;;;;;;16.52;9.68;;;;;;;-143.48;98.89;118439.88;5114822;28;20039;-67
2023/03/19 03:36:27;;;;;;;15.25;9.88;;;;;;;-143.48;98.82;118439.88;5115331;28;20473;-68
2023/03/19 03:38:53;;;;;;;15.80;9.82;;;;;;;-143.48;98.65;118439.88;5115442;28;20026;-69
2023/03/19 03:41:18;;;;;;;15.20;9.82;;;;;;;-143.48;98.78;118439.88;5096866;28;20510;-68
2023/03/19 03:43:44;;;;;;;15.35;9.10;;;;;;;-143.48;98.98;118439.88;5097005;28;20028;-68
2023/03/19 03:46:09;;;;;;;15.65;10.02;;;;;;;-143.48;98.93;118439.88;5096706;28;20023;-68
2023/03/19 03:48:34;;;;;;;15.30;10.00;;;;;;;-143.48;98.91;118439.88;5114931;28;20043;-68
2023/03/19 03:51:00;;;;;;;15.13;9.85;;;;;;;-143.48;98.33;118439.88;5115195;28;20027;-68
2023/03/19 03:53:25;;;;;;;14.63;9.55;;;;;;;-143.48;98.90;118439.88;5114940;28;20024;-68
2023/03/19 03:55:51;;;;;;;17.13;10.27;;;;;;;-143.48;99.22;118439.88;5114920;28;20028;-68
2023/03/19 03:58:16;;;;;;;18.27;10.48;;;;;;;-143.48;99.13;118439.88;5115027;28;20458;-68
2023/03/19 04:00:41;;;;;;;15.98;9.73;;;;;;;-143.48;99.35;118439.88;5096701;28;20045;-68
2023/03/19 04:03:07;;;;;;;17.38;10.50;;;;;;;-143.48;99.88;118439.88;5096520;28;20024;-67
2023/03/19 04:05:33;;;;;;;19.38;10.63;;;;;;;-143.48;99.73;118439.88;5114800;28;20020;-68
2023/03/19 04:07:58;;;;;;;17.27;10.52;;;;;;;-143.48;100.00;118439.88;5096539;28;20019;-68
2023/03/19 04:10:23;;;;;;;16.05;10.18;;;;;;;-143.48;100.00;118439.88;5114767;28;20110;-68
2023/03/19 04:12:49;;;;;;;16.58;10.30;;;;;;;-143.48;100.00;118439.88;5114971;28;20102;-68
2023/03/19 04:15:15;;;;;;;20.02;10.77;;;;;;;-143.48;100.00;118439.88;5114764;28;20038;-68
2023/03/19 04:17:41;;;;;;;17.15;10.80;;;;;;;-143.48;100.00;118439.88;5096246;28;20054;-67
2023/03/19 04:20:08;;;;;;;16.77;10.52;;;;;;;-143.48;100.00;118439.88;5114722;28;20023;-68
2023/03/19 04:22:33;;;;;;;17.00;10.38;;;;;;;-143.48;100.00;118439.88;5114647;28;20088;-68
2023/03/19 04:24:59;;;;;;;16.52;10.68;;;;;;;-143.48;100.00;118439.88;5114389;28;20027;-68
2023/03/19 04:27:24;;;;;;;19.17;10.73;;;;;;;-143.48;100.00;118439.88;5114595;28;20420;-68
2023/03/19 04:29:49;;;;;;;18.27;10.98;;;;;;;-143.48;100.00;118439.88;5114404;28;20023;-69
2023/03/19 04:32:15;;;;;;;17.00;10.30;;;;;;;-143.48;100.00;118439.88;5114333;28;20023;-70
2023/03/19 04:34:41;;;;;;;17.08;10.02;;;;;;;-143.48;100.00;118439.88;5114574;28;20026;-69
2023/03/19 04:37:09;;;;;;;18.52;11.02;;;;;;;-143.48;100.00;118439.88;5096353;28;20031;-69
2023/03/19 04:39:34;;;;;;;18.15;11.20;;;;;;;-143.48;100.00;118439.88;5113122;28;20112;-69
2023/03/19 04:42:00;;;;;;;19.33;11.05;;;;;;;-143.48;100.00;118439.88;5114310;28;20103;-68
2023/03/19 04:44:25;;;;;;;17.45;10.68;;;;;;;-143.48;100.00;118439.88;5096190;28;20458;-68
2023/03/19 04:46:51;;;;;;;19.42;11.10;;;;;;;-143.48;100.00;118439.88;5117708;28;20042;-68
2023/03/19 04:49:16;;;;;;;17.10;10.90;;;;;;;-143.48;100.00;118439.88;5118290;28;20031;-68
2023/03/19 04:51:42;;;;;;;20.92;11.13;;;;;;;-143.48;100.00;118439.88;5118637;28;20057;-68
2023/03/19 04:54:07;;;;;;;18.45;10.57;;;;;;;-143.48;100.00;118439.88;5118404;28;20457;-68
2023/03/19 04:56:33;;;;;;;20.73;12.25;;;;;;;-143.48;99.91;118439.88;5100157;28;20093;-68
2023/03/19 04:58:58;;;;;;;18.45;11.35;;;;;;;-143.48;100.00;118439.88;5099878;28;20016;-68
2023/03/19 05:01:24;;;;;;;19.73;11.57;;;;;;;-143.48;100.00;118439.88;5118563;28;20055;-69
2023/03/19 05:03:49;;;;;;;20.25;11.40;;;;;;;-143.48;100.00;118439.88;5118021;28;20028;-69
2023/03/19 05:06:16;;;;;;;21.05;11.90;;;;;;;-143.48;100.00;118439.88;5099867;28;20110;-68
2023/03/19 05:08:41;;;;;;;17.95;11.63;;;;;;;-143.48;100.00;118439.88;5099903;28;20473;-68
2023/03/19 05:11:07;;;;;;;22.08;11.90;;;;;;;-143.48;100.00;118439.88;5118027;28;20028;-68
2023/03/19 05:13:32;;;;;;;23.42;13.02;;;;;;;-143.48;100.00;118439.88;5117898;28;20530;-68
2023/03/19 05:15:58;;;;;;;23.88;13.18;;;;;;;-143.48;100.00;118439.88;5099687;28;20023;-69
2023/03/19 05:18:23;;;;;;;24.38;13.25;;;;;;;-143.48;100.00;118439.88;5099533;28;20020;-69
2023/03/19 05:20:49;;;;;;;25.27;13.95;;;;;;;-143.48;100.00;118439.88;5118182;28;20131;-68
2023/03/19 05:23:14;;;;;;;24.33;13.48;;;;;;;-143.48;100.00;118439.88;5117668;28;20032;-69
2023/03/19 05:25:39;;;;;;;20.63;12.32;;;;;;;-143.48;100.00;118439.88;5117925;28;20024;-68
2023/03/19 05:28:06;;;;;;;22.20;13.32;;;;;;;-143.48;100.00;118439.88;5117860;28;20456;-69
2023/03/19 05:30:32;;;;;;;24.23;13.13;;;;;;;-143.48;100.00;118439.88;5117586;28;20028;-70
2023/03/19 05:32:58;;;;;;;24.55;14.07;;;;;;;-143.48;100.00;118439.88;5117719;28;20399;-68
2023/03/19 05:35:24;;;;;;;24.05;14.25;;;;;;;-143.48;100.00;118439.88;5116294;28;20161;-69
2023/03/19 05:37:50;;;;;;;26.08;15.52;;;;;;;-143.48;100.00;118439.88;5117392;28;20149;-69
2023/03/19 05:40:15;;;;;;;27.10;16.17;;;;;;;-143.48;100.00;118439.88;5099172;28;20069;-69
2023/03/19 05:42:41;;;;;;;24.70;15.75;;;;;;;-143.48;100.00;118439.88;5117678;28;20023;-68
2023/03/19 05:45:07;;;;;;;26.67;15.75;;;;;;;-143.48;100.00;118439.88;5117578;28;20023;-68
2023/03/19 05:47:33;;;;;;;28.70;16.65;;;;;;;-143.48;100.00;118439.88;5117211;28;20100;-68
2023/03/19 05:49:59;;;;;;;28.60;17.17;;;;;;;-143.48;100.00;118439.88;5117109;28;20022;-68
2023/03/19 05:52:25;;;;;;;30.42;17.92;;;;;;;-143.48;100.00;118439.88;5099083;28;20027;-68
2023/03/19 05:54:50;;;;;;;29.35;17.42;;;;;;;-143.48;100.00;118439.88;5117420;28;20030;-69
2023/03/19 05:57:15;;;;;;;30.67;18.00;;;;;;;-143.48;100.00;118439.88;5098387;28;20027;-69
2023/03/19 05:59:41;;;;;;;30.80;18.48;;;;;;;-143.48;100.00;118439.88;5117450;28;20439;-69
2023/03/19 06:02:06;;;;;;;30.13;17.95;;;;;;;-143.48;100.00;118439.88;5098938;28;20028;-68
2023/03/19 06:04:32;;;;;;;31.63;18.73;;;;;;;-143.48;100.00;118439.88;5116889;28;20027;-68
2023/03/19 06:06:57;;;;;;;32.17;18.73;;;;;;;-143.48;100.00;118439.88;5117011;28;20028;-68
2023/03/19 06:09:23;;;;;;;27.50;17.05;;;;;;;-143.48;99.68;118439.88;5117149;28;20031;-69
2023/03/19 06:11:48;;;;;;;26.17;16.88;;;;;;;-143.48;99.33;118439.88;5116860;28;20030;-69
2023/03/19 06:14:14;;;;;;;30.30;16.52;;;;;;;-143.48;99.55;118439.88;5117023;28;20068;-68
2023/03/19 06:16:39;;;;;;;29.52;17.83;;;;;;;-143.48;99.53;118439.88;5118195;28;20519;-68
2023/03/19 06:19:06;;;;;;;29.20;17.80;;;;;;;-143.48;99.42;118439.88;5124786;28;20024;-70
2023/03/19 06:21:31;;;;;;;32.38;19.05;;;;;;;-143.48;99.44;118439.88;5121516;28;20355;-69
2023/03/19 06:23:57;;;;;;;32.42;17.63;;;;;;;-143.48;99.95;118439.88;5116870;28;20019;-69
2023/03/19 06:26:23;;;;;;;32.53;18.63;;;;;;;-143.48;99.61;118439.88;5116785;28;20032;-68
2023/03/19 06:28:49;;;;;;;31.55;18.60;;;;;;;-143.48;100.00;118439.88;5105734;28;20027;-68
2023/03/19 06:31:14;;;;;;;32.88;19.35;;;;;;;-143.48;100.00;118439.88;5122000;28;20077;-68
2023/03/19 06:33:40;;;;;;;31.42;18.42;;;;;;;-143.48;100.00;118439.88;5100400;28;20027;-69
2023/03/19 06:36:06;;;;;;;30.52;19.38;;;;;;;-143.48;100.00;118439.88;5128318;28;20382;-68
2023/03/19 06:38:32;;;;;;;34.55;18.65;;;;;;;-143.48;99.90;118439.88;5117256;28;20084;-68
2023/03/19 06:40:57;;;;;;;35.53;19.23;;;;;;;-143.48;100.00;118439.88;5121188;28;20032;-70
2023/03/19 06:43:22;;;;;;;32.88;19.02;;;;;;;-143.48;99.81;118439.88;5100805;28;20386;-68
2023/03/19 06:45:48;;;;;;;34.00;19.33;;;;;;;-143.48;99.68;118439.88;5116441;28;20110;-69
2023/03/19 06:48:13;;;;;;;33.78;19.25;;;;;;;-143.48;99.78;118439.88;5116662;28;20379;-69
2023/03/19 06:50:39;;;;;;;32.28;18.60;;;;;;;-143.48;99.94;118439.88;5116332;28;20024;-68
2023/03/19 06:53:04;;;;;;;30.33;18.60;;;;;;;-143.48;99.81;118439.88;5116282;28;20398;-69
2023/03/19 06:55:29;;;;;;;30.10;18.33;;;;;;;-143.48;99.58;118439.88;5116287;28;20058;-68
2023/03/19 06:57:55;;;;;;;32.95;18.20;;;;;;;-143.48;99.52;118439.88;5117852;28;20027;-68
2023/03/19 07:00:21;;;;;;;33.67;18.05;;;;;;;-143.48;99.58;118439.88;5139094;28;20031;-68
2023/03/19 07:02:46;;;;;;;34.63;18.92;;;;;;;-143.48;99.30;118439.88;5097909;28;20019;-68
2023/03/19 07:05:12;;;;;;;35.78;19.48;;;;;;;-143.48;99.27;118439.88;5115988;28;20027;-69
2023/03/19 07:07:37;;;;;;;34.55;18.88;;;;;;;-143.48;99.54;118439.88;5115456;28;20020;-68
2023/03/19 07:10:03;;;;;;;38.00;20.08;;;;;;;-143.48;99.60;118439.88;5115456;28;20020;-67
2023/03/19 07:12:29;;;;;;;39.35;20.67;;;;;;;-143.48;99.82;118439.88;5117029;28;20032;-68
2023/03/19 07:14:57;;;;;;;40.00;20.40;;;;;;;-143.48;100.00;118439.88;5117670;28;20039;-68
2023/03/19 07:17:23;;;;;;;37.05;19.60;;;;;;;-143.48;100.00;118439.88;5101616;28;20027;-68
2023/03/19 07:19:49;;;;;;;35.22;19.45;;;;;;;-143.48;100.00;118439.88;5116796;28;20016;-69
2023/03/19 07:22:14;;;;;;;38.58;20.02;;;;;;;-143.48;100.00;118439.88;5116981;28;20019;-69
2023/03/19 07:24:40;;;;;;;36.15;20.05;;;;;;;-143.48;100.00;118439.88;5098436;28;20035;-69
2023/03/19 07:27:05;;;;;;;38.38;19.95;;;;;;;-143.48;100.00;118439.88;5100842;28;20022;-69
2023/03/19 07:29:30;;;;;;;38.35;20.35;;;;;;;-143.48;100.00;118439.88;5121696;28;20029;-69
2023/03/19 07:31:56;;;;;;;39.17;20.75;;;;;;;-143.48;100.00;118439.88;5123938;28;20035;-69
2023/03/19 07:34:22;;;;;;;37.22;19.92;;;;;;;-143.48;100.00;118439.88;5122578;28;20027;-68
2023/03/19 07:36:47;;;;;;;38.83;20.58;;;;;;;-143.48;100.00;118439.88;5120323;28;20399;-69
2023/03/19 07:39:13;;;;;;;38.83;20.50;;;;;;;-143.48;100.00;118439.88;5118051;28;20348;-69
2023/03/19 07:41:38;;;;;;;39.90;20.58;;;;;;;-143.48;100.00;118439.88;5128228;28;20031;-69
2023/03/19 07:44:03;;;;;;;37.22;20.55;;;;;;;-143.48;100.00;118439.88;5113775;28;20035;-68
2023/03/19 07:46:29;;;;;;;40.67;21.75;;;;;;;-143.48;100.00;118439.88;5120826;28;20049;-69
2023/03/19 07:48:54;;;;;;;39.65;20.85;;;;;;;-143.48;100.00;118439.88;5123192;28;20414;-68
2023/03/19 07:51:20;;;;;;;40.25;21.02;;;;;;;-143.48;100.00;118439.88;5123637;28;20051;-68
2023/03/19 07:53:45;;;;;;;38.25;19.52;;;;;;;-143.48;100.00;118439.88;5122866;28;20108;-68
2023/03/19 07:56:11;;;;;;;36.10;19.65;;;;;;;-143.48;100.00;118439.88;5121824;28;20030;-68
2023/03/19 07:58:37;;;;;;;35.97;18.55;;;;;;;-143.48;100.00;118439.88;5122638;28;20023;-68
2023/03/19 08:01:03;;;;;;;34.40;18.50;;;;;;;-143.48;100.00;118439.88;5122578;28;20362;-68
2023/03/19 08:03:28;;;;;;;29.55;16.58;;;;;;;-143.48;100.00;118439.88;5123062;28;20031;-69
2023/03/19 08:05:54;;;;;;;31.63;17.35;;;;;;;-143.48;100.00;118439.88;5123659;28;20055;-69
2023/03/19 08:08:19;;;;;;;33.42;18.15;;;;;;;-143.48;100.00;118439.88;5123661;28;20055;-70
2023/03/19 08:10:46;;;;;;;35.58;18.45;;;;;;;-143.48;99.28;118439.88;5108076;28;20030;-71
2023/03/19 08:13:12;;;;;;;29.33;17.42;;;;;;;-143.48;99.19;118439.88;5131170;28;20035;-68
2023/03/19 08:15:38;;;;;;;28.63;17.40;;;;;;;-143.48;99.19;118439.88;5131294;28;20026;-70
2023/03/19 08:18:04;;;;;;;29.55;16.98;;;;;;;-143.48;99.35;118439.88;5113885;28;20023;-68
2023/03/19 08:20:29;;;;;;;31.95;17.25;;;;;;;-143.48;99.75;118439.88;5132836;28;20028;-70
2023/03/19 08:22:56;;;;;;;28.92;16.13;;;;;;;-143.48;99.55;118439.88;5131947;28;20033;-70
2023/03/19 08:25:22;;;;;;;33.55;15.93;;;;;;;-143.48;98.91;118439.88;5132368;28;20027;-69
2023/03/19 08:27:48;;;;;;;33.25;17.13;;;;;;;-143.48;99.20;118439.88;5114294;28;20035;-69
2023/03/19 08:30:13;;;;;;;30.95;16.23;;;;;;;-143.48;99.04;118439.88;5130957;28;20022;-69
2023/03/19 08:32:39;;;;;;;32.25;17.58;;;;;;;-143.48;99.63;118439.88;5114060;28;20031;-69
2023/03/19 08:35:05;;;;;;;30.20;16.13;;;;;;;-143.48;98.92;118439.88;5121146;28;20030;-68
2023/03/19 08:37:30;;;;;;;25.25;15.18;;;;;;;-143.48;98.43;118439.88;5119636;28;20024;-69
2023/03/19 08:39:56;;;;;;;29.10;15.13;;;;;;;-143.48;99.19;118439.88;5118102;28;20045;-69
2023/03/19 08:42:21;;;;;;;30.70;16.35;;;;;;;-143.48;99.72;118439.88;5117916;28;20020;-69
2023/03/19 08:44:47;;;;;;;28.85;16.55;;;;;;;-143.48;98.40;118439.88;5117091;28;20023;-69
2023/03/19 08:47:13;;;;;;;29.83;16.70;;;;;;;-143.48;99.25;118439.88;5116999;28;20026;-68
2023/03/19 08:49:38;;;;;;;31.23;16.45;;;;;;;-143.48;99.32;118439.88;5117108;28;20032;-68
2023/03/19 08:52:05;;;;;;;35.25;17.77;;;;;;;-143.48;98.82;118439.88;5115651;28;20027;-69
2023/03/19 08:54:30;;;;;;;33.05;17.02;;;;;;;-143.48;99.50;118439.88;5115892;28;20403;-69
2023/03/19 08:56:56;;;;;;;35.03;17.42;;;;;;;-143.48;99.69;118439.88;5096619;28;20019;-68
2023/03/19 08:59:21;;;;;;;29.65;17.20;;;;;;;-143.48;99.49;118439.88;5117317;28;20398;-69
2023/03/19 09:01:51;;;;;;;32.35;17.63;;;;;;;-143.48;99.14;118439.88;5117102;28;20081;-68
2023/03/19 09:04:16;;;;;;;32.25;18.13;;;;;;;-143.48;99.04;118439.88;5113572;28;20028;-68
2023/03/19 09:06:42;;;;;;;31.90;17.45;;;;;;;-143.48;98.42;118439.88;5113605;28;20076;-70
2023/03/19 09:09:07;;;;;;;31.48;17.00;;;;;;;-143.48;97.75;118439.88;5112819;28;20102;-68
2023/03/19 09:11:33;;;;;;;31.77;17.20;;;;;;;-143.48;97.50;118439.88;5112500;28;20417;-68
2023/03/19 09:13:58;;;;;;;29.23;16.65;;;;;;;-143.48;96.78;118439.88;5113206;28;20024;-68
2023/03/19 09:16:25;;;;;;;34.90;17.70;;;;;;;-143.48;97.14;118439.88;5112756;28;20072;-68
2023/03/19 09:18:50;;;;;;;31.95;17.02;;;;;;;-143.48;97.21;118439.88;5112852;28;20558;-69
2023/03/19 09:21:15;;;;;;;33.88;17.15;;;;;;;-143.48;98.26;118439.88;5112767;28;20028;-69
2023/03/19 09:23:41;;;;;;;38.40;17.83;;;;;;;-143.48;97.58;118439.88;5112526;28;20028;-69
2023/03/19 09:26:06;;;;;;;33.72;17.15;;;;;;;-143.48;97.45;118439.88;5112903;28;20036;-69
2023/03/19 09:28:31;;;;;;;30.17;16.00;;;;;;;-143.48;96.50;118439.88;5095683;28;20027;-69
2023/03/19 09:30:57;;;;;;;33.00;16.80;;;;;;;-143.48;96.18;118439.88;5095569;28;20032;-68
2023/03/19 09:33:22;;;;;;;34.60;17.67;;;;;;;-143.48;96.24;118439.88;5117833;28;20074;-69
2023/03/19 09:35:51;;;;;;;43.65;19.45;;;;;;;-143.48;96.64;118439.88;5117591;28;20028;-69
2023/03/19 09:38:16;;;;;;;43.70;19.83;;;;;;;-143.48;97.62;118439.88;5117720;28;20028;-69
2023/03/19 09:40:45;;;;;;;45.97;20.75;;;;;;;-143.48;97.21;118439.88;5117872;28;20020;-69
2023/03/19 09:43:35;;;;;;;45.10;20.10;;;;;;;-143.48;98.07;118439.88;5117810;28;20462;-68
2023/03/19 09:46:05;;;;;;;41.97;20.15;;;;;;;-143.48;98.33;118439.88;5117465;28;20474;-68
2023/03/19 09:48:43;;;;;;;45.13;19.40;;;;;;;-143.48;97.55;118439.88;5117739;28;20052;-68
2023/03/19 09:51:16;;;;;;;41.22;18.92;;;;;;;-143.48;98.56;118439.88;5117216;28;20027;-69
2023/03/19 09:53:52;;;;;;;36.30;17.30;;;;;;;-143.48;98.37;118439.88;5099104;28;20030;-69
2023/03/19 09:56:18;;;;;;;35.28;16.35;;;;;;;-143.48;98.32;118439.88;5116039;28;20031;-69
2023/03/19 09:58:44;;;;;;;33.70;15.50;;;;;;;-143.48;97.93;118439.88;5117522;28;20027;-68
2023/03/19 10:01:32;;;;;;;31.65;15.20;;;;;;;-143.48;97.81;118439.88;5098862;28;20066;-69
2023/03/19 10:04:39;;;;;;;34.05;15.32;;;;;;;-143.48;96.56;118439.88;5117221;28;20012;-69
2023/03/19 10:07:21;;;;;;;31.60;14.63;;;;;;;-143.48;97.20;118439.88;5077511;28;20465;-68
2023/03/19 10:10:20;;;;;;;34.05;15.18;;;;;;;-143.48;97.61;118439.88;5098770;28;20149;-68
2023/03/19 10:12:58;;;;;;;30.67;14.88;;;;;;;-143.48;96.94;118439.88;5083355;28;20092;-68
2023/03/19 10:15:29;;;;;;;31.65;14.45;;;;;;;-143.48;96.06;118439.88;5115650;28;20046;-68
2023/03/19 10:17:54;;;;;;;29.63;14.43;;;;;;;-143.48;95.60;118439.88;5116500;28;20023;-68
2023/03/19 10:20:38;;;;;;;30.42;14.38;;;;;;;-143.48;94.30;118439.88;5116817;28;20020;-68
2023/03/19 10:23:19;;;;;;;35.50;14.13;;;;;;;-143.48;94.56;118439.88;5098603;28;20023;-68
2023/03/19 10:25:44;;;;;;;37.70;15.20;;;;;;;-143.48;95.07;118439.88;5116732;28;20023;-69
2023/03/19 10:28:15;;;;;;;34.72;14.57;;;;;;;-143.48;94.71;118439.88;5116654;28;20047;-69
2023/03/19 10:30:44;;;;;;;32.55;14.73;;;;;;;-143.48;94.10;118439.88;5098554;28;20100;-69
2023/03/19 10:33:25;;;;;;;31.77;13.25;;;;;;;-143.48;93.24;118439.88;5098576;28;20490;-69
2023/03/19 10:36:08;;;;;;;34.13;15.27;;;;;;;-143.48;93.66;118439.88;5116598;28;20024;-69
2023/03/19 10:38:37;;;;;;;;;;;;;;;-143.48;93.04;118439.88;5117422;28;20019;-68
2023/03/19 10:41:18;;;;;;;27.70;12.43;;;;;;;-143.48;94.62;118439.88;5098299;28;19915;-68
2023/03/19 10:43:57;;;;;;;32.25;12.85;;;;;;;-143.48;93.30;118439.88;5116424;28;20389;-69
2023/03/19 10:46:23;;;;;;;29.15;12.73;;;;;;;-143.48;92.22;118439.88;5116476;28;20106;-68
2023/03/19 10:48:48;;;;;;;30.15;14.15;;;;;;;-143.48;91.67;118439.88;5116158;28;20104;-68
2023/03/19 10:51:20;;;;;;;31.65;13.65;;;;;;;-143.48;92.24;118439.88;5097729;28;20120;-69
2023/03/19 10:53:45;;;;;;;32.05;13.95;;;;;;;-143.48;92.49;118439.88;5117086;28;20039;-69
2023/03/19 10:56:19;;;;;;;30.33;13.07;;;;;;;-143.48;92.00;118439.88;5116034;28;20470;-69